Time;durP1;ratioP1;P1;durP2;ratioP2;P2;SDS_P1;SDS_P2;PMS_P1;PMS_P2;Temp;Humidity;BMP_temperature;BMP_pressure;BME280_temperature;BME280_humidity;BME280_pressure;Samples;Min_cycle;Max_cycle;Signal;HPM_P1;HPM_P2
2023/09/24 00:01:11;;;;;;;21.73;10.73;;;;;;;8.42;100.00;102327.03;5069067;28;20033;-76
2023/09/24 00:03:37;;;;;;;16.38;10.23;;;;;;;8.44;100.00;102330.53;5064246;28;20047;-76
2023/09/24 00:06:05;;;;;;;17.35;10.10;;;;;;;8.44;100.00;102327.06;5070926;28;20520;-76
2023/09/24 00:08:31;;;;;;;23.00;11.85;;;;;;;8.33;100.00;102313.06;5063543;28;20024;-77
2023/09/24 00:10:56;;;;;;;17.83;11.18;;;;;;;8.39;100.00;102331.34;5071715;28;20082;-77
2023/09/24 00:13:22;;;;;;;17.73;10.40;;;;;;;8.43;100.00;102339.16;5063824;28;20083;-76
2023/09/24 00:15:51;;;;;;;20.55;11.13;;;;;;;8.43;100.00;102339.16;5071738;28;20040;-76
2023/09/24 00:18:18;;;;;;;20.38;11.10;;;;;;;8.43;100.00;102340.91;5063118;28;20060;-76
2023/09/24 00:20:44;;;;;;;18.00;10.73;;;;;;;8.39;100.00;102336.53;5063735;28;20377;-76
2023/09/24 00:23:16;;;;;;;18.98;11.48;;;;;;;8.41;100.00;102342.63;5059123;28;20028;-76
2023/09/24 00:25:41;;;;;;;18.20;11.25;;;;;;;8.40;100.00;102353.88;5065614;28;20423;-77
2023/09/24 00:28:07;;;;;;;22.42;12.40;;;;;;;8.32;100.00;102334.72;5061115;28;20476;-77
2023/09/24 00:30:34;;;;;;;21.50;11.98;;;;;;;8.35;100.00;102343.41;5068441;28;20029;-77
2023/09/24 00:33:00;;;;;;;23.73;12.65;;;;;;;8.31;100.00;102348.56;5062852;28;20021;-77
2023/09/24 00:35:25;;;;;;;23.48;13.02;;;;;;;8.33;100.00;102349.44;5070081;28;20033;-77
2023/09/24 00:37:51;;;;;;;20.83;13.50;;;;;;;8.30;100.00;102352.88;5054201;28;20610;-77
2023/09/24 00:40:18;;;;;;;26.17;14.20;;;;;;;8.30;100.00;102359.78;5068187;28;20059;-77
2023/09/24 00:42:43;;;;;;;26.55;14.13;;;;;;;8.28;100.00;102359.78;5064713;28;20033;-77
2023/09/24 00:45:11;;;;;;;22.52;13.90;;;;;;;8.25;100.00;102364.97;5067114;28;20020;-76
2023/09/24 00:47:42;;;;;;;24.13;14.63;;;;;;;8.21;100.00;102358.88;5057951;28;20025;-76
2023/09/24 00:50:09;;;;;;;24.23;13.85;;;;;;;8.21;100.00;102364.06;5063738;28;20073;-76
2023/09/24 00:52:35;;;;;;;22.27;15.20;;;;;;;8.19;100.00;102368.34;5063509;28;20032;-77
2023/09/24 00:55:03;;;;;;;27.30;14.75;;;;;;;8.13;100.00;102363.09;5067314;28;20045;-77
2023/09/24 00:57:31;;;;;;;24.55;14.38;;;;;;;8.16;100.00;102370.91;5065479;28;20033;-77
2023/09/24 00:59:58;;;;;;;24.38;14.20;;;;;;;8.12;100.00;102368.28;5065775;28;20085;-77
2023/09/24 01:02:24;;;;;;;25.58;14.80;;;;;;;8.10;100.00;102363.06;5060362;28;20036;-77
2023/09/24 01:04:55;;;;;;;21.33;14.30;;;;;;;8.09;100.00;102357.84;5066262;28;20036;-76
2023/09/24 01:07:23;;;;;;;22.63;14.50;;;;;;;8.11;100.00;102362.22;5065867;28;20029;-77
2023/09/24 01:09:49;;;;;;;29.33;14.23;;;;;;;8.07;100.00;102359.56;5065518;28;20112;-77
2023/09/24 01:12:26;;;;;;;24.42;14.40;;;;;;;8.08;100.00;102362.19;5066185;28;20074;-77
2023/09/24 01:14:53;;;;;;;24.02;14.35;;;;;;;8.06;100.00;102369.06;5064355;28;20056;-77
2023/09/24 01:17:20;;;;;;;22.17;14.85;;;;;;;8.03;100.00;102371.63;5065905;28;20074;-77
2023/09/24 01:19:46;;;;;;;22.77;14.95;;;;;;;7.99;100.00;102359.47;5065793;28;20032;-77
2023/09/24 01:22:12;;;;;;;21.88;14.23;;;;;;;8.00;100.00;102362.94;5065736;28;20472;-77
2023/09/24 01:24:37;;;;;;;22.45;14.52;;;;;;;7.98;100.00;102366.41;5067491;28;20105;-77
2023/09/24 01:27:02;;;;;;;21.83;15.15;;;;;;;7.97;100.00;102369.84;5064166;28;20024;-77
2023/09/24 01:29:27;;;;;;;27.33;15.85;;;;;;;7.94;100.00;102368.94;5064847;28;20024;-77
2023/09/24 01:31:54;;;;;;;22.85;15.18;;;;;;;7.93;100.00;102377.59;5065731;28;20025;-77
2023/09/24 01:34:19;;;;;;;22.67;15.20;;;;;;;7.84;100.00;102354.09;5063995;28;20040;-77
2023/09/24 01:36:45;;;;;;;23.30;15.70;;;;;;;7.86;100.00;102361.06;5065312;28;20103;-77
2023/09/24 01:39:15;;;;;;;23.30;15.35;;;;;;;7.81;100.00;102349.72;5064203;28;20032;-77
2023/09/24 01:41:41;;;;;;;26.38;15.70;;;;;;;7.87;100.00;102361.91;5065306;28;20021;-77
2023/09/24 01:44:06;;;;;;;23.63;15.65;;;;;;;7.81;100.00;102351.47;5063748;28;20141;-77
2023/09/24 01:46:32;;;;;;;26.13;15.65;;;;;;;7.86;100.00;102361.06;5064813;28;20033;-77
2023/09/24 01:48:59;;;;;;;26.55;16.52;;;;;;;7.84;100.00;102365.34;5064866;28;20476;-77
2023/09/24 01:51:24;;;;;;;26.02;16.55;;;;;;;7.82;100.00;102359.28;5066999;28;20021;-77
2023/09/24 01:53:49;;;;;;;25.70;16.13;;;;;;;7.81;100.00;102354.94;5065582;28;20107;-77
2023/09/24 01:56:17;;;;;;;25.10;16.50;;;;;;;7.82;100.00;102358.41;5064338;28;20467;-77
2023/09/24 01:58:43;;;;;;;27.48;16.88;;;;;;;7.81;100.00;102361.84;5064497;28;20029;-77
2023/09/24 02:01:09;;;;;;;29.27;16.75;;;;;;;7.77;100.00;102360.06;5066971;28;20041;-77
2023/09/24 02:03:38;;;;;;;25.60;16.10;;;;;;;7.76;100.00;102361.81;5061609;28;20518;-77
2023/09/24 02:06:07;;;;;;;28.25;17.17;;;;;;;7.71;100.00;102359.13;5066353;28;20061;-77
2023/09/24 02:08:32;;;;;;;26.50;16.38;;;;;;;7.69;100.00;102355.66;5059946;28;20115;-77
2023/09/24 02:10:57;;;;;;;26.38;16.10;;;;;;;7.69;100.00;102358.25;5063798;28;20120;-77
2023/09/24 02:13:23;;;;;;;26.60;17.30;;;;;;;7.68;100.00;102356.53;5060187;28;20488;-77
2023/09/24 02:15:48;;;;;;;28.08;17.08;;;;;;;7.70;100.00;102367.78;5057445;28;20025;-77
2023/09/24 02:18:14;;;;;;;29.88;16.48;;;;;;;7.72;100.00;102363.50;5064799;28;20029;-77
2023/09/24 02:20:46;;;;;;;27.95;17.02;;;;;;;7.69;100.00;102370.38;5059857;28;20049;-77
2023/09/24 02:23:11;;;;;;;27.40;16.83;;;;;;;7.67;100.00;102379.84;5049153;28;20060;-77
2023/09/24 02:25:37;;;;;;;23.75;16.35;;;;;;;7.55;100.00;102361.50;5053227;28;20116;-77
2023/09/24 02:28:04;;;;;;;26.55;16.10;;;;;;;7.65;100.00;102382.44;5063001;28;20086;-77
2023/09/24 02:30:34;;;;;;;27.35;15.70;;;;;;;7.65;100.00;102397.13;5065905;28;20494;-76
2023/09/24 02:33:02;;;;;;;27.08;16.13;;;;;;;7.63;100.00;102381.53;5059340;28;20083;-77
2023/09/24 02:35:27;;;;;;;24.83;15.57;;;;;;;7.54;100.00;102381.41;5064554;28;20033;-77
2023/09/24 02:37:53;;;;;;;28.52;16.15;;;;;;;7.57;100.00;102384.03;5064203;28;20103;-77
2023/09/24 02:40:23;;;;;;;27.48;16.35;;;;;;;7.55;100.00;102377.09;5062262;28;20068;-77
2023/09/24 02:42:54;;;;;;;26.30;16.52;;;;;;;7.53;100.00;102374.47;5065183;28;20053;-77
2023/09/24 02:45:20;;;;;;;26.13;16.15;;;;;;;7.38;100.00;102358.69;5059357;28;20028;-77
2023/09/24 02:47:50;;;;;;;28.08;15.93;;;;;;;7.50;100.00;102387.41;5066581;28;20380;-77
2023/09/24 02:50:25;;;;;;;27.02;16.50;;;;;;;7.52;100.00;102385.72;5057796;28;20389;-77
2023/09/24 02:52:55;;;;;;;25.35;15.00;;;;;;;7.53;100.00;102391.78;5053821;28;20103;-77
2023/09/24 02:55:22;;;;;;;26.50;15.55;;;;;;;7.50;100.00;102395.19;5057746;28;20051;-77
2023/09/24 02:57:50;;;;;;;32.17;16.45;;;;;;;7.44;100.00;102383.00;5067790;28;20389;-77
2023/09/24 03:00:20;;;;;;;29.40;15.63;;;;;;;7.43;100.00;102372.63;5060210;28;20025;-77
2023/09/24 03:02:47;;;;;;;24.08;16.08;;;;;;;7.43;100.00;102376.06;5062914;28;20039;-77
2023/09/24 03:05:20;;;;;;;22.58;15.57;;;;;;;7.42;100.00;102382.13;5060765;28;20024;-77
2023/09/24 03:07:47;;;;;;;25.83;15.07;;;;;;;7.41;100.00;102388.16;5061379;28;20464;-77
2023/09/24 03:10:13;;;;;;;28.25;15.40;;;;;;;7.34;100.00;102378.53;5061022;28;20023;-77
2023/09/24 03:12:42;;;;;;;26.35;15.52;;;;;;;7.27;100.00;102369.78;5060239;28;20545;-77
2023/09/24 03:15:11;;;;;;;26.77;14.93;;;;;;;7.32;100.00;102381.94;5064973;28;20071;-77
2023/09/24 03:17:38;;;;;;;26.50;15.15;;;;;;;7.36;100.00;102396.75;5059648;28;20414;-77
2023/09/24 03:20:14;;;;;;;28.13;15.52;;;;;;;7.36;100.00;102396.75;5059452;28;20108;-77
2023/09/24 03:22:46;;;;;;;28.25;14.88;;;;;;;7.25;100.00;102384.44;5055524;28;20025;-77
2023/09/24 03:25:12;;;;;;;26.38;14.15;;;;;;;7.21;100.00;102387.84;5068992;28;20495;-77
2023/09/24 03:27:39;;;;;;;22.70;14.95;;;;;;;7.33;100.00;102399.28;5059295;28;20037;-77
2023/09/24 03:30:13;;;;;;;21.40;13.90;;;;;;;7.33;100.00;102404.47;5066416;28;20028;-77
2023/09/24 03:32:42;;;;;;;25.35;15.02;;;;;;;7.33;100.00;102404.47;5059981;28;20028;-77
2023/09/24 03:35:09;;;;;;;24.85;13.90;;;;;;;7.33;100.00;102413.13;5064803;28;20415;-77
2023/09/24 03:37:40;;;;;;;25.13;14.07;;;;;;;7.31;100.00;102414.81;5064763;28;20078;-77
2023/09/24 03:40:09;;;;;;;23.08;14.30;;;;;;;7.30;100.00;102409.63;5068030;28;20414;-77
2023/09/24 03:42:35;;;;;;;26.48;14.65;;;;;;;7.27;100.00;102421.69;5055066;28;20017;-77
2023/09/24 03:45:01;;;;;;;25.48;14.38;;;;;;;7.28;100.00;102418.22;5066521;28;20021;-77
2023/09/24 03:47:26;;;;;;;22.38;13.18;;;;;;;7.26;100.00;102424.25;5061450;28;20027;-77
2023/09/24 03:49:51;;;;;;;25.83;13.75;;;;;;;7.16;100.00;102404.19;5063518;28;20048;-77
2023/09/24 03:52:17;;;;;;;22.77;13.68;;;;;;;7.13;100.00;102402.44;5058880;28;20025;-77
2023/09/24 03:54:42;;;;;;;27.27;13.25;;;;;;;7.25;100.00;102423.38;5064497;28;20073;-77
2023/09/24 03:57:07;;;;;;;25.35;13.23;;;;;;;7.26;100.00;102422.53;5062632;28;20077;-77
2023/09/24 03:59:36;;;;;;;22.67;13.43;;;;;;;7.23;100.00;102419.91;5062985;28;20108;-78
2023/09/24 04:02:06;;;;;;;24.75;12.63;;;;;;;7.20;100.00;102421.56;5063733;28;20021;-77
2023/09/24 04:04:32;;;;;;;20.35;12.32;;;;;;;7.06;100.00;102410.09;5061878;28;20032;-77
2023/09/24 04:06:57;;;;;;;21.02;12.73;;;;;;;7.13;100.00;102414.50;5063367;28;20032;-77
2023/09/24 04:09:23;;;;;;;20.35;12.35;;;;;;;7.09;100.00;102416.19;5057905;28;20032;-77
2023/09/24 04:11:48;;;;;;;19.63;13.30;;;;;;;7.11;100.00;102419.69;5060487;28;20040;-77
2023/09/24 04:14:14;;;;;;;22.75;12.43;;;;;;;7.13;100.00;102430.97;5062826;28;20031;-77
2023/09/24 04:16:39;;;;;;;21.08;12.25;;;;;;;7.07;100.00;102422.22;5059680;28;20044;-77
2023/09/24 04:19:07;;;;;;;26.23;12.93;;;;;;;7.13;100.00;102428.38;5057316;28;20136;-77
2023/09/24 04:21:32;;;;;;;24.55;13.23;;;;;;;7.01;100.00;102423.00;5054007;28;20104;-78
2023/09/24 04:23:58;;;;;;;21.75;12.80;;;;;;;7.01;100.00;102429.03;5059515;28;20025;-77
2023/09/24 04:26:24;;;;;;;21.08;12.52;;;;;;;7.07;100.00;102438.66;5062177;28;20064;-77
2023/09/24 04:28:51;;;;;;;20.08;11.88;;;;;;;7.02;100.00;102435.97;5055421;28;20025;-77
2023/09/24 04:31:17;;;;;;;22.13;12.40;;;;;;;6.99;100.00;102443.69;5054990;28;20053;-77
2023/09/24 04:33:42;;;;;;;21.80;12.68;;;;;;;6.99;100.00;102443.69;5056717;28;20067;-77
2023/09/24 04:36:09;;;;;;;21.35;11.88;;;;;;;6.95;100.00;102449.69;5058386;28;20029;-77
2023/09/24 04:38:36;;;;;;;19.10;12.45;;;;;;;6.92;100.00;102451.34;5060949;28;20020;-77
2023/09/24 04:41:01;;;;;;;22.40;12.02;;;;;;;6.89;100.00;102449.56;5061553;28;20040;-77
2023/09/24 04:43:27;;;;;;;20.45;12.05;;;;;;;6.86;100.00;102443.47;5055368;28;20029;-77
2023/09/24 04:45:52;;;;;;;21.05;11.85;;;;;;;6.78;100.00;102436.44;5066824;28;20121;-77
2023/09/24 04:48:17;;;;;;;19.15;12.30;;;;;;;6.83;100.00;102448.59;5064143;28;20032;-77
2023/09/24 04:50:43;;;;;;;19.95;11.85;;;;;;;6.84;100.00;102448.63;5070318;28;20025;-77
2023/09/24 04:53:08;;;;;;;18.48;12.30;;;;;;;6.86;100.00;102454.69;5057553;28;20020;-77
2023/09/24 04:55:33;;;;;;;19.77;12.45;;;;;;;6.77;100.00;102439.00;5059623;28;20500;-78
2023/09/24 04:58:00;;;;;;;19.60;12.57;;;;;;;6.82;100.00;102447.72;5063133;28;20016;-78
2023/09/24 05:00:25;;;;;;;19.48;12.25;;;;;;;6.84;100.00;102452.94;5061616;28;20159;-78
2023/09/24 05:02:50;;;;;;;18.50;11.75;;;;;;;6.78;100.00;102445.94;5068107;28;20103;-77
2023/09/24 05:05:16;;;;;;;19.55;12.20;;;;;;;6.70;100.00;102435.44;5069449;28;20353;-78
2023/09/24 05:07:41;;;;;;;20.80;12.30;;;;;;;6.72;100.00;102438.91;5061933;28;20021;-77
2023/09/24 05:10:09;;;;;;;20.75;12.07;;;;;;;6.77;100.00;102463.22;5061705;28;20029;-78
2023/09/24 05:12:35;;;;;;;16.85;11.38;;;;;;;6.71;100.00;102451.84;5065338;28;20028;-77
2023/09/24 05:15:00;;;;;;;18.40;11.75;;;;;;;6.73;100.00;102456.19;5053633;28;20172;-77
2023/09/24 05:17:26;;;;;;;20.58;12.07;;;;;;;6.62;100.00;102434.41;5060710;28;20069;-77
2023/09/24 05:19:52;;;;;;;20.98;11.90;;;;;;;6.76;100.00;102463.16;5060239;28;20029;-78
2023/09/24 05:22:17;;;;;;;17.70;11.75;;;;;;;6.70;100.00;102448.41;5064959;28;20030;-77
2023/09/24 05:24:43;;;;;;;23.65;12.93;;;;;;;6.72;100.00;102467.41;5064743;28;20032;-77
2023/09/24 05:27:08;;;;;;;19.17;11.85;;;;;;;6.67;100.00;102466.47;5062491;28;20021;-78
2023/09/24 05:29:34;;;;;;;17.00;12.23;;;;;;;6.70;100.00;102473.41;5065765;28;20052;-77
2023/09/24 05:32:02;;;;;;;18.83;11.20;;;;;;;6.68;100.00;102469.94;5060373;28;20028;-78
2023/09/24 05:34:27;;;;;;;18.67;11.43;;;;;;;6.70;100.00;102479.50;5064335;28;20067;-77
2023/09/24 05:36:53;;;;;;;19.67;11.48;;;;;;;6.55;100.00;102450.69;5065604;28;20115;-77
2023/09/24 05:39:18;;;;;;;20.88;11.68;;;;;;;6.61;100.00;102468.94;5064582;28;20464;-77
2023/09/24 05:41:44;;;;;;;19.80;11.68;;;;;;;6.54;100.00;102452.41;5064658;28;20098;-77
2023/09/24 05:44:09;;;;;;;19.58;11.85;;;;;;;6.72;100.00;102487.28;5064658;28;20031;-78
2023/09/24 05:46:34;;;;;;;17.85;11.68;;;;;;;6.74;100.00;102496.84;5065281;28;20024;-77
2023/09/24 05:49:00;;;;;;;19.75;12.02;;;;;;;6.70;100.00;102479.50;5064809;28;20056;-78
2023/09/24 05:51:25;;;;;;;20.40;12.43;;;;;;;6.70;100.00;102470.81;5064342;28;20151;-78
2023/09/24 05:53:52;;;;;;;29.08;12.27;;;;;;;6.89;100.00;102508.34;5064878;28;20032;-78
2023/09/24 05:56:18;;;;;;;17.23;11.32;;;;;;;6.92;100.00;102505.78;5064289;28;20373;-78
2023/09/24 05:58:43;;;;;;;20.70;11.63;;;;;;;6.95;100.00;102508.44;5064488;28;20021;-78
2023/09/24 06:01:14;;;;;;;19.27;11.98;;;;;;;7.01;100.00;102511.16;5067506;28;20029;-77
2023/09/24 06:03:39;;;;;;;21.08;11.32;;;;;;;7.04;100.00;102512.06;5062670;28;20025;-78
2023/09/24 06:06:09;;;;;;;24.25;11.52;;;;;;;7.08;100.00;102506.94;5068888;28;20478;-78
2023/09/24 06:08:34;;;;;;;23.23;11.73;;;;;;;7.11;100.00;102518.25;5062196;28;20444;-78
2023/09/24 06:11:00;;;;;;;19.52;11.73;;;;;;;7.10;100.00;102506.13;5064435;28;20044;-77
2023/09/24 06:13:25;;;;;;;22.10;10.88;;;;;;;7.16;100.00;102498.47;5063899;28;20032;-77
2023/09/24 06:16:01;;;;;;;19.48;11.05;;;;;;;7.16;100.00;102490.69;5062502;28;20099;-77
2023/09/24 06:18:27;;;;;;;19.75;11.32;;;;;;;7.32;100.00;102512.53;5059313;28;20044;-77
2023/09/24 06:20:53;;;;;;;22.55;11.90;;;;;;;7.33;100.00;102514.31;5062255;28;20075;-79
2023/09/24 06:23:19;;;;;;;22.77;12.57;;;;;;;7.34;100.00;102510.00;5061018;28;20036;-77
2023/09/24 06:25:44;;;;;;;22.52;11.35;;;;;;;7.42;100.00;102508.38;5060644;28;20020;-77
2023/09/24 06:28:09;;;;;;;21.67;12.15;;;;;;;7.48;100.00;102517.13;5063767;28;20435;-77
2023/09/24 06:30:36;;;;;;;24.05;12.57;;;;;;;7.53;100.00;102516.34;5061236;28;20061;-77
2023/09/24 06:33:03;;;;;;;24.58;12.00;;;;;;;7.56;100.00;102521.59;5061933;28;20083;-77
2023/09/24 06:35:28;;;;;;;23.40;12.18;;;;;;;7.60;100.00;102520.78;5067587;28;20037;-77
2023/09/24 06:37:54;;;;;;;20.80;11.93;;;;;;;7.58;100.00;102509.50;5060031;28;20031;-78
2023/09/24 06:40:19;;;;;;;24.35;12.48;;;;;;;7.64;100.00;102512.19;5064928;28;20052;-77
2023/09/24 06:42:45;;;;;;;27.17;12.27;;;;;;;7.69;100.00;102527.00;5062657;28;20418;-78
2023/09/24 06:45:11;;;;;;;23.65;11.85;;;;;;;7.73;100.00;102521.00;5068202;28;20028;-77
2023/09/24 06:47:36;;;;;;;23.20;11.60;;;;;;;7.79;100.00;102529.75;5060845;28;20071;-78
2023/09/24 06:50:02;;;;;;;20.15;12.40;;;;;;;7.82;100.00;102519.41;5067334;28;20107;-77
2023/09/24 06:52:30;;;;;;;30.58;13.13;;;;;;;7.92;100.00;102526.47;5061524;28;20063;-77
2023/09/24 06:54:56;;;;;;;25.58;11.77;;;;;;;7.98;100.00;102527.44;5065287;28;20387;-78
2023/09/24 06:57:21;;;;;;;26.17;11.90;;;;;;;8.01;100.00;102526.59;5064383;28;20104;-77
2023/09/24 06:59:47;;;;;;;25.88;11.85;;;;;;;8.05;100.00;102523.19;5057054;28;20021;-78
2023/09/24 07:02:14;;;;;;;25.15;12.45;;;;;;;8.13;100.00;102537.13;5063645;28;20361;-77
2023/09/24 07:04:40;;;;;;;24.63;12.55;;;;;;;8.18;100.00;102535.50;5063204;28;20055;-78
2023/09/24 07:07:07;;;;;;;23.17;12.18;;;;;;;8.09;100.00;102511.13;5063516;28;20017;-78
2023/09/24 07:09:33;;;;;;;21.52;11.52;;;;;;;8.28;100.00;102531.28;5063846;28;20039;-78
2023/09/24 07:11:58;;;;;;;26.73;12.05;;;;;;;8.33;100.00;102523.53;5061158;28;20028;-78
2023/09/24 07:14:24;;;;;;;21.73;12.15;;;;;;;8.48;100.00;102528.97;5063071;28;20559;-78
2023/09/24 07:16:49;;;;;;;26.42;12.77;;;;;;;8.34;100.00;102495.00;5055522;28;20024;-79
2023/09/24 07:19:14;;;;;;;24.10;11.52;;;;;;;8.63;100.00;102533.47;5054976;28;20017;-79
2023/09/24 07:21:40;;;;;;;27.70;12.70;;;;;;;8.58;100.00;102522.16;5065357;28;20078;-79
2023/09/24 07:24:06;;;;;;;25.40;11.82;;;;;;;8.72;100.00;102541.38;5062850;28;20028;-79
2023/09/24 07:26:32;;;;;;;26.65;12.75;;;;;;;8.78;100.00;102538.84;5063030;28;20090;-79
2023/09/24 07:28:57;;;;;;;30.25;12.43;;;;;;;8.79;100.00;102524.97;5057929;28;20044;-79
2023/09/24 07:31:24;;;;;;;24.67;11.88;;;;;;;8.91;100.00;102550.25;5059269;28;20025;-79
2023/09/24 07:33:51;;;;;;;25.05;11.10;;;;;;;8.88;100.00;102534.63;5054578;28;20131;-79
2023/09/24 07:36:16;;;;;;;29.00;13.00;;;;;;;9.09;100.00;102557.38;5057938;28;20025;-79
2023/09/24 07:38:42;;;;;;;23.45;10.98;;;;;;;9.16;100.00;102560.94;5063379;28;20059;-79
2023/09/24 07:41:09;;;;;;;23.65;11.40;;;;;;;9.24;100.00;102560.13;5060200;28;20035;-78
2023/09/24 07:43:35;;;;;;;24.83;11.25;;;;;;;9.33;100.00;102549.81;5057696;28;20115;-79
2023/09/24 07:46:01;;;;;;;24.15;10.45;;;;;;;9.44;100.00;102562.03;5064269;28;20024;-78
2023/09/24 07:48:27;;;;;;;27.42;10.07;;;;;;;9.52;100.00;102570.81;5058425;28;20029;-79
2023/09/24 07:50:55;;;;;;;25.70;10.18;;;;;;;9.64;100.00;102567.41;5066390;28;20024;-78
2023/09/24 07:53:22;;;;;;;20.15;9.52;;;;;;;9.67;100.00;102564.84;5057352;28;20116;-78
2023/09/24 07:55:55;;;;;;;21.77;8.63;;;;;;;9.81;100.00;102569.31;5066313;28;20041;-79
2023/09/24 07:58:22;;;;;;;18.70;8.82;;;;;;;9.89;100.00;102569.34;5060031;28;20029;-79
2023/09/24 08:00:47;;;;;;;17.27;7.32;;;;;;;10.02;100.00;102572.91;5046926;28;20036;-79
2023/09/24 08:03:13;;;;;;;16.50;7.88;;;;;;;10.07;100.00;102569.47;5057633;28;20025;-79
2023/09/24 08:05:38;;;;;;;16.75;8.25;;;;;;;10.15;100.00;102573.84;5055753;28;20051;-78
2023/09/24 08:08:04;;;;;;;12.85;7.13;;;;;;;10.32;100.00;102562.69;5057302;28;20021;-78
2023/09/24 08:10:29;;;;;;;11.88;6.35;;;;;;;10.48;100.00;102561.03;5058212;28;20443;-78
2023/09/24 08:12:55;;;;;;;12.60;5.57;;;;;;;10.54;100.00;102568.88;5059204;28;20029;-79
2023/09/24 08:15:20;;;;;;;10.93;5.47;;;;;;;10.60;100.00;102565.44;5058838;28;20029;-78
2023/09/24 08:17:46;;;;;;;12.73;5.63;;;;;;;10.70;100.00;102556.75;5063445;28;20430;-77
2023/09/24 08:20:11;;;;;;;9.07;5.57;;;;;;;10.82;100.00;102552.44;5064562;28;20025;-78
2023/09/24 08:22:36;;;;;;;12.57;5.30;;;;;;;10.98;100.00;102555.09;5063424;28;20035;-78
2023/09/24 08:25:02;;;;;;;9.90;4.68;;;;;;;11.05;100.00;102563.78;5056609;28;20599;-79
2023/09/24 08:27:27;;;;;;;10.80;5.32;;;;;;;11.13;100.00;102562.09;5065913;28;20036;-79
2023/09/24 08:29:53;;;;;;;10.38;4.47;;;;;;;11.23;100.00;102557.75;5065387;28;20056;-79
2023/09/24 08:32:18;;;;;;;11.93;4.43;;;;;;;11.27;100.00;102546.44;5063549;28;20028;-79
2023/09/24 08:34:44;;;;;;;10.13;3.70;;;;;;;11.41;100.00;102549.94;5068570;28;20483;-79
2023/09/24 08:37:09;;;;;;;10.82;4.15;;;;;;;11.51;100.00;102542.97;5064939;28;20113;-79
2023/09/24 08:39:35;;;;;;;11.30;4.15;;;;;;;11.60;100.00;102553.41;5066609;28;20070;-79
2023/09/24 08:42:02;;;;;;;6.90;3.78;;;;;;;11.75;100.00;102555.16;5066890;28;20036;-79
2023/09/24 08:44:28;;;;;;;6.95;3.22;;;;;;;11.88;100.00;102554.28;5065055;28;20036;-79
2023/09/24 08:46:53;;;;;;;5.53;2.90;;;;;;;11.96;100.00;102549.03;5066534;28;20091;-79
2023/09/24 08:49:20;;;;;;;8.43;2.80;;;;;;;12.10;100.00;102542.06;5066006;28;20028;-79
2023/09/24 08:51:46;;;;;;;6.68;3.30;;;;;;;12.16;100.00;102544.66;5065700;28;20485;-79
2023/09/24 08:54:13;;;;;;;6.13;2.53;;;;;;;12.25;100.00;102546.34;5066419;28;20025;-78
2023/09/24 08:56:39;;;;;;;7.10;2.72;;;;;;;12.39;100.00;102549.81;5065270;28;20056;-79
2023/09/24 08:59:05;;;;;;;5.85;2.83;;;;;;;12.53;100.00;102546.25;5066031;28;20025;-78
2023/09/24 09:01:30;;;;;;;6.05;3.10;;;;;;;12.65;100.00;102548.78;5065565;28;20024;-79
2023/09/24 09:03:56;;;;;;;9.65;2.60;;;;;;;12.77;100.00;102547.88;5066375;28;20038;-79
2023/09/24 09:06:32;;;;;;;4.43;2.28;;;;;;;12.87;100.00;102550.41;5067053;28;20121;-79
2023/09/24 09:08:57;;;;;;;4.65;2.30;;;;;;;13.01;100.00;102546.84;5052602;28;20107;-79
2023/09/24 09:11:43;;;;;;;7.47;3.63;;;;;;;13.10;100.00;102547.66;5065407;28;20432;-79
2023/09/24 09:14:09;;;;;;;5.03;2.20;;;;;;;13.23;100.00;102540.59;5053839;28;20033;-78
2023/09/24 09:16:55;;;;;;;3.78;2.22;;;;;;;13.38;100.00;102539.66;5064385;28;20039;-79
2023/09/24 09:19:20;;;;;;;8.75;2.10;;;;;;;13.46;100.00;102537.81;5061418;28;20446;-78
2023/09/24 09:21:45;;;;;;;4.30;1.80;;;;;;;13.56;100.00;102534.22;5063233;28;20528;-79
2023/09/24 09:24:24;;;;;;;5.00;1.90;;;;;;;13.61;100.00;102530.72;5065648;28;20112;-79
2023/09/24 09:26:57;;;;;;;3.30;1.90;;;;;;;13.69;100.00;102521.00;5062377;28;20048;-79
2023/09/24 09:29:24;;;;;;;4.63;1.90;;;;;;;13.84;100.00;102510.38;5054123;28;20032;-79
2023/09/24 09:31:49;;;;;;;3.83;1.73;;;;;;;13.88;100.00;102513.84;5064269;28;20387;-78
2023/09/24 09:34:15;;;;;;;6.57;1.70;;;;;;;14.05;100.00;102509.28;5064808;28;20078;-78
2023/09/24 09:36:40;;;;;;;5.70;1.80;;;;;;;14.16;100.00;102502.16;5065485;28;20380;-79
2023/09/24 09:39:06;;;;;;;4.68;2.15;;;;;;;14.29;100.00;102505.50;5064480;28;20028;-79
2023/09/24 09:41:33;;;;;;;5.15;1.63;;;;;;;14.39;100.00;102493.16;5065045;28;20071;-78
2023/09/24 09:44:05;;;;;;;6.03;1.75;;;;;;;14.51;100.00;102491.22;5065704;28;20029;-79
2023/09/24 09:46:38;;;;;;;4.20;2.03;;;;;;;14.58;100.00;102493.78;5064497;28;20025;-78
2023/09/24 09:49:07;;;;;;;4.07;1.67;;;;;;;14.58;100.00;102493.78;5064971;28;20035;-79
2023/09/24 09:51:45;;;;;;;6.93;2.10;;;;;;;14.64;100.00;102478.81;5064582;28;20113;-79
2023/09/24 09:54:12;;;;;;;3.40;1.42;;;;;;;14.71;100.00;102498.84;5064518;28;20035;-78
2023/09/24 09:56:38;;;;;;;4.15;1.60;;;;;;;14.77;100.00;102484.75;5064341;28;20037;-79
2023/09/24 09:59:04;;;;;;;4.68;1.55;;;;;;;14.83;100.00;102492.53;5065429;28;20032;-79
2023/09/24 10:01:31;;;;;;;3.90;1.58;;;;;;;14.91;100.00;102492.41;5064058;28;20787;-79
2023/09/24 10:03:58;;;;;;;4.13;1.48;;;;;;;14.97;100.00;102487.94;5058000;28;20078;-78
2023/09/24 10:06:23;;;;;;;6.00;1.40;;;;;;;15.11;100.00;102476.38;5061928;28;20036;-78
2023/09/24 10:08:49;;;;;;;3.35;1.73;;;;;;;15.17;100.00;102468.34;5054441;28;20065;-79
2023/09/24 10:11:30;;;;;;;3.42;1.73;;;;;;;15.20;100.00;102456.06;5053558;28;20033;-79
2023/09/24 10:13:56;;;;;;;3.35;1.70;;;;;;;15.33;100.00;102456.69;5055697;28;20492;-78
2023/09/24 10:16:31;;;;;;;3.85;1.30;;;;;;;15.46;100.00;102452.09;5061901;28;20036;-79
2023/09/24 10:19:07;;;;;;;2.78;1.40;;;;;;;15.55;100.00;102459.81;5057753;28;20033;-79
2023/09/24 10:21:37;;;;;;;4.85;1.50;;;;;;;15.63;100.00;102451.75;5061518;28;20120;-80
2023/09/24 10:24:12;;;;;;;2.28;1.38;;;;;;;15.76;100.00;102465.56;5063540;28;20025;-79
2023/09/24 10:26:48;;;;;;;3.00;1.45;;;;;;;15.84;100.00;102458.41;5060808;28;20028;-78
2023/09/24 10:29:15;;;;;;;2.97;1.75;;;;;;;15.90;100.00;102446.00;5060781;28;20037;-79
2023/09/24 10:32:09;;;;;;;2.13;1.50;;;;;;;16.00;100.00;102454.59;5051232;28;20079;-79
2023/09/24 10:34:57;;;;;;;3.03;1.60;;;;;;;16.06;100.00;102451.84;5062281;28;20545;-79
2023/09/24 10:37:30;;;;;;;3.67;1.95;;;;;;;16.17;100.00;102448.09;5059091;28;20487;-79
2023/09/24 10:40:05;;;;;;;5.10;1.95;;;;;;;16.26;100.00;102454.03;5055303;28;20016;-78
2023/09/24 10:42:31;;;;;;;6.40;1.85;;;;;;;16.31;100.00;102456.56;5049583;28;20048;-79
2023/09/24 10:45:06;;;;;;;3.53;1.30;;;;;;;16.38;100.00;102447.63;5054782;28;20032;-79
2023/09/24 10:47:34;;;;;;;3.40;1.67;;;;;;;16.53;100.00;102459.59;5057705;28;20186;-79
2023/09/24 10:50:03;;;;;;;4.18;1.60;;;;;;;16.58;100.00;102448.06;5064401;28;20032;-79
2023/09/24 10:52:29;;;;;;;4.53;1.75;;;;;;;16.63;100.00;102440.91;5052255;28;20040;-79
2023/09/24 10:54:55;;;;;;;4.13;1.42;;;;;;;16.69;100.00;102436.41;5054867;28;20041;-77
2023/09/24 10:57:24;;;;;;;2.70;1.35;;;;;;;16.83;100.00;102432.56;5055333;28;20025;-79
2023/09/24 10:59:50;;;;;;;3.53;1.42;;;;;;;16.96;100.00;102437.53;5061458;28;20020;-79
2023/09/24 11:02:16;;;;;;;2.85;1.33;;;;;;;17.07;100.00;102436.38;5060630;28;20103;-79
2023/09/24 11:04:42;;;;;;;4.43;1.50;;;;;;;17.17;100.00;102442.28;5062431;28;20024;-76
2023/09/24 11:07:11;;;;;;;3.90;1.58;;;;;;;17.26;100.00;102435.88;5063674;28;20425;-76
2023/09/24 11:09:37;;;;;;;3.63;1.30;;;;;;;17.33;100.00;102437.47;5053059;28;20033;-76
2023/09/24 11:12:09;;;;;;;3.83;1.50;;;;;;;17.43;100.00;102428.41;5055631;28;20027;-76